Time;durP1;ratioP1;P1;durP2;ratioP2;P2;SDS_P1;SDS_P2;PMS_P1;PMS_P2;Temp;Humidity;BMP_temperature;BMP_pressure;BME280_temperature;BME280_humidity;BME280_pressure;Samples;Min_cycle;Max_cycle;Signal;HPM_P1;HPM_P2
2021/09/27 00:01:17;;;;;;;4.18;1.42;;;;;;;-149.78;100.00;50174.19;4844124;29;20121;-78
2021/09/27 00:03:44;;;;;;;1.98;1.50;;;;;;;-149.78;100.00;50162.44;4844429;29;20095;-76
2021/09/27 00:06:12;;;;;;;7.07;1.73;;;;;;;-149.78;100.00;50150.72;4828327;29;20045;-76
2021/09/27 00:08:38;;;;;;;4.25;1.65;;;;;;;-149.78;100.00;50144.84;4826673;29;20104;-82
2021/09/27 00:11:18;;;;;;;2.67;1.75;;;;;;;-149.78;100.00;50215.25;4808662;29;20039;-82
2021/09/27 00:13:47;;;;;;;5.50;2.00;;;;;;;-149.78;100.00;50158.53;4841667;29;20395;-84
2021/09/27 00:16:13;;;;;;;3.13;1.70;;;;;;;-149.78;100.00;50201.56;4813196;29;20048;-82
2021/09/27 00:18:41;;;;;;;4.10;1.60;;;;;;;-149.78;100.00;50154.63;4824825;29;20125;-85
2021/09/27 00:21:12;;;;;;;6.88;1.70;;;;;;;-149.78;100.00;50182.00;4828780;29;20038;-80
2021/09/27 00:23:39;;;;;;;5.63;1.63;;;;;;;-149.78;100.00;50182.00;4831864;29;20068;-82
2021/09/27 00:26:06;;;;;;;4.55;1.75;;;;;;;-149.78;100.00;50144.84;4831267;29;20758;-79
2021/09/27 00:28:33;;;;;;;3.85;1.60;;;;;;;-149.78;100.00;50197.66;4833743;29;20065;-79
2021/09/27 00:30:59;;;;;;;4.72;1.73;;;;;;;-149.78;100.00;50168.31;4826405;29;20501;-80
2021/09/27 00:33:26;;;;;;;4.32;1.60;;;;;;;-149.78;100.00;50178.09;4795283;29;20042;-81
2021/09/27 00:35:53;;;;;;;4.15;1.45;;;;;;;-149.78;100.00;50154.63;4824610;29;20126;-87
2021/09/27 00:38:19;;;;;;;5.35;1.70;;;;;;;-149.78;100.00;50195.69;4830918;29;20105;-80
2021/09/27 00:40:53;;;;;;;5.45;1.60;;;;;;;-149.78;100.00;50138.97;4824266;29;20403;-80
2021/09/27 00:43:19;;;;;;;4.53;1.70;;;;;;;-149.78;100.00;50146.81;4825941;29;20128;-80
2021/09/27 00:45:48;;;;;;;4.28;1.67;;;;;;;-149.78;100.00;50170.25;4823283;29;20117;-80
2021/09/27 00:48:15;;;;;;;3.45;1.73;;;;;;;-149.78;100.00;50166.34;4823097;29;20041;-81
2021/09/27 00:50:44;;;;;;;3.45;1.35;;;;;;;-149.78;100.00;50144.84;4842226;29;20098;-86
2021/09/27 00:53:21;;;;;;;6.60;1.75;;;;;;;-149.78;100.00;50209.38;4825970;29;20034;-80
2021/09/27 00:55:47;;;;;;;2.88;1.40;;;;;;;-149.78;100.00;50129.19;4842041;29;20038;-86
2021/09/27 00:58:15;;;;;;;4.63;1.60;;;;;;;-149.78;100.00;50170.25;4795312;29;20141;-81
2021/09/27 01:00:41;;;;;;;4.30;1.67;;;;;;;-149.78;100.00;50158.53;4826600;29;20033;-85
2021/09/27 01:03:07;;;;;;;5.68;1.90;;;;;;;-149.78;100.00;50182.00;4808340;29;20102;-86
2021/09/27 01:05:36;;;;;;;4.95;1.70;;;;;;;-149.78;100.00;50150.72;4798097;29;20133;-86
2021/09/27 01:08:32;;;;;;;5.00;1.73;;;;;;;-149.78;100.00;50162.44;4821539;29;20117;-87
2021/09/27 01:11:30;;;;;;;6.68;1.73;;;;;;;-149.78;100.00;50189.81;4842210;29;20044;-85
2021/09/27 01:14:09;;;;;;;6.65;1.70;;;;;;;-149.78;100.00;50185.91;4806882;29;20053;-81
2021/09/27 01:16:45;;;;;;;5.32;1.52;;;;;;;-149.78;100.00;50182.00;4841387;29;20034;-81
2021/09/27 01:19:30;;;;;;;4.97;1.75;;;;;;;-149.78;100.00;50178.09;4822676;29;20038;-80
2021/09/27 01:22:14;;;;;;;3.25;1.88;;;;;;;-149.78;100.00;50166.34;4821280;29;20042;-81
2021/09/27 01:25:21;;;;;;;3.15;1.55;;;;;;;-149.78;100.00;50189.81;4812104;29;20048;-81
2021/09/27 01:28:25;;;;;;;4.82;1.50;;;;;;;-149.78;100.00;50148.75;4842313;29;20038;-87
2021/09/27 01:30:55;;;;;;;2.58;1.65;;;;;;;-149.78;100.00;50201.56;4836862;29;20041;-80
2021/09/27 01:33:32;;;;;;;4.03;1.60;;;;;;;-149.78;100.00;50158.53;4830846;29;20498;-84
2021/09/27 01:36:20;;;;;;;3.67;1.67;;;;;;;-149.78;100.00;50162.44;4825556;29;20038;-87
2021/09/27 01:39:05;;;;;;;3.88;1.70;;;;;;;-149.78;100.00;50146.81;4794150;29;20073;-87
2021/09/27 01:41:58;;;;;;;5.72;2.05;;;;;;;-149.78;100.00;50203.50;4826433;29;20058;-84
2021/09/27 01:45:06;;;;;;;4.25;1.52;;;;;;;-149.78;100.00;50170.25;4823407;29;20029;-87
2021/09/27 01:47:41;;;;;;;5.00;1.75;;;;;;;-149.78;100.00;50162.44;4799286;29;20103;-86
2021/09/27 01:50:15;;;;;;;5.03;2.00;;;;;;;-149.78;100.00;50176.13;4809315;29;20041;-80
2021/09/27 01:52:52;;;;;;;3.30;2.25;;;;;;;-149.78;100.00;50193.72;4830288;29;20042;-78
2021/09/27 01:55:33;;;;;;;6.45;2.13;;;;;;;-149.78;100.00;50201.56;4823397;29;20197;-80
2021/09/27 01:58:04;;;;;;;5.25;1.70;;;;;;;-149.78;100.00;50182.00;4825880;29;20145;-80
2021/09/27 02:00:59;;;;;;;4.85;1.77;;;;;;;-149.78;100.00;50162.44;4827502;29;20033;-82
2021/09/27 02:03:45;;;;;;;3.45;1.90;;;;;;;-149.78;100.00;50182.00;4814030;29;20045;-83
2021/09/27 02:06:23;;;;;;;7.05;1.70;;;;;;;-149.78;100.00;50197.66;4809697;29;20046;-81
2021/09/27 02:09:04;;;;;;;4.95;1.75;;;;;;;-149.78;100.00;50209.38;4824586;29;20042;-79
2021/09/27 02:11:33;;;;;;;3.70;1.75;;;;;;;-149.78;100.00;50158.53;4809947;29;20050;-80
2021/09/27 02:14:29;;;;;;;4.65;1.88;;;;;;;-149.78;100.00;50176.13;4826116;29;20081;-80
2021/09/27 02:17:10;;;;;;;3.13;1.92;;;;;;;-149.78;100.00;50146.81;4812618;29;20026;-82
2021/09/27 02:20:25;;;;;;;5.20;2.10;;;;;;;-149.78;100.00;50158.53;4825694;29;20427;-83
2021/09/27 02:22:59;;;;;;;6.28;2.20;;;;;;;-149.78;100.00;50152.66;4767971;30;20078;-84
2021/09/27 02:25:32;;;;;;;4.85;1.95;;;;;;;-149.78;100.00;50174.19;4749906;30;20054;-88
2021/09/27 02:28:05;;;;;;;7.65;2.25;;;;;;;-149.78;100.00;50162.44;4769761;29;20050;-88
2021/09/27 02:31:09;;;;;;;4.32;1.85;;;;;;;-149.78;100.00;50174.19;4830410;29;20042;-86
2021/09/27 02:33:39;;;;;;;8.15;2.40;;;;;;;-149.78;100.00;50148.75;4810407;29;20572;-87
2021/09/27 02:36:12;;;;;;;5.18;2.15;;;;;;;-149.78;100.00;50185.91;4809428;29;20546;-86
2021/09/27 02:38:56;;;;;;;6.15;2.38;;;;;;;-149.78;100.00;50197.66;4810539;29;20500;-88
2021/09/27 02:41:47;;;;;;;5.05;2.10;;;;;;;-149.78;100.00;50197.66;4820381;29;20192;-86
2021/09/27 02:44:14;;;;;;;7.05;2.50;;;;;;;-149.78;100.00;50178.09;4809895;29;20402;-85
2021/09/27 02:46:53;;;;;;;4.47;2.47;;;;;;;-149.78;100.00;50168.31;4830978;29;20038;-86
2021/09/27 02:49:19;;;;;;;7.13;2.35;;;;;;;-149.78;100.00;50150.72;4793471;29;20044;-81
2021/09/27 02:51:47;;;;;;;5.50;2.30;;;;;;;-149.78;100.00;50154.63;4794123;29;20182;-88
2021/09/27 02:54:20;;;;;;;5.10;2.45;;;;;;;-149.78;100.00;50178.09;4825931;29;20038;-87
2021/09/27 02:57:09;;;;;;;7.90;2.22;;;;;;;-149.78;100.00;50189.81;4816156;29;20111;-88
2021/09/27 02:59:42;;;;;;;3.20;2.28;;;;;;;-149.78;100.00;50170.25;4837287;29;20042;-86
2021/09/27 03:02:56;;;;;;;5.28;2.17;;;;;;;-149.78;100.00;50201.56;4827944;29;20062;-86
2021/09/27 03:06:01;;;;;;;4.07;2.42;;;;;;;-149.78;100.00;50178.09;4807809;29;20504;-83
2021/09/27 03:08:58;;;;;;;3.45;2.30;;;;;;;-149.78;100.00;50201.56;4834033;29;20478;-82
2021/09/27 03:11:35;;;;;;;6.60;2.47;;;;;;;-149.78;100.00;50182.00;4843220;29;20042;-86
2021/09/27 03:14:29;;;;;;;7.03;2.13;;;;;;;-149.78;100.00;50168.31;4841285;29;20056;-85
2021/09/27 03:17:00;;;;;;;4.03;2.38;;;;;;;-149.78;100.00;50131.16;4844215;29;20030;-87
2021/09/27 03:19:48;;;;;;;4.80;2.37;;;;;;;-149.78;100.00;50154.63;4828026;29;20045;-88
2021/09/27 03:22:24;;;;;;;7.80;3.92;;;;;;;-149.78;100.00;50178.09;4831794;29;20281;-85
2021/09/27 03:25:07;;;;;;;5.05;2.55;;;;;;;-149.78;100.00;50182.00;4825076;29;20042;-79
2021/09/27 03:27:39;;;;;;;;;;;;;;;-149.78;100.00;50182.00;4820300;29;20098;-86
2021/09/27 03:30:21;;;;;;;3.88;2.50;;;;;;;-149.78;100.00;50189.81;4844158;29;19923;-84
2021/09/27 03:33:05;;;;;;;7.85;3.38;;;;;;;-149.78;100.00;50166.34;4835715;29;20041;-81
2021/09/27 03:35:43;;;;;;;5.43;2.95;;;;;;;-149.78;100.00;50189.81;4844661;29;20041;-87
2021/09/27 03:38:20;;;;;;;5.25;3.10;;;;;;;-149.78;100.00;50174.19;4843458;29;20045;-81
2021/09/27 03:41:20;;;;;;;7.57;2.90;;;;;;;-149.78;100.00;50154.63;4844313;29;20038;-85
2021/09/27 03:44:01;;;;;;;7.38;3.80;;;;;;;-149.78;100.00;50201.56;4819350;29;20038;-86
2021/09/27 03:46:40;;;;;;;6.20;3.42;;;;;;;-149.78;100.00;50221.13;4842437;29;20086;-83
2021/09/27 03:49:17;;;;;;;8.35;3.30;;;;;;;-149.78;100.00;50150.72;4825384;29;20037;-86
2021/09/27 03:51:57;;;;;;;6.05;3.58;;;;;;;-149.78;100.00;50187.88;4826140;29;20045;-86
2021/09/27 03:54:41;;;;;;;4.72;2.97;;;;;;;-149.78;100.00;50138.97;4835670;29;20037;-87
2021/09/27 03:57:15;;;;;;;6.15;3.10;;;;;;;-149.78;100.00;50197.66;4841976;29;20393;-82
2021/09/27 03:59:58;;;;;;;5.43;3.35;;;;;;;-149.78;100.00;50201.56;4818723;29;20098;-82
2021/09/27 04:02:32;;;;;;;;;;;;;;;-149.78;100.00;50174.19;4840010;29;20226;-84
2021/09/27 04:05:12;;;;;;;8.07;3.13;;;;;;;-149.78;100.00;50182.00;4832976;29;19917;-84
2021/09/27 04:07:52;;;;;;;6.90;3.05;;;;;;;-149.78;100.00;50187.88;4823853;29;20117;-80
2021/09/27 04:10:47;;;;;;;11.73;3.60;;;;;;;-149.78;100.00;50201.56;4842671;29;20030;-80
2021/09/27 04:13:37;;;;;;;4.72;2.90;;;;;;;-149.78;100.00;50183.97;4823574;29;20053;-83
2021/09/27 04:16:22;;;;;;;7.35;3.20;;;;;;;-149.78;100.00;50176.13;4819092;29;20479;-84
2021/09/27 04:19:28;;;;;;;6.00;2.88;;;;;;;-149.78;100.00;50197.66;4841278;29;20102;-89
2021/09/27 04:22:23;;;;;;;6.55;2.47;;;;;;;-149.78;100.00;50197.66;4828231;29;20520;-81
2021/09/27 04:25:01;;;;;;;5.35;2.80;;;;;;;-149.78;100.00;50166.34;4825196;29;20052;-83
2021/09/27 04:27:39;;;;;;;5.10;2.70;;;;;;;-149.78;100.00;50174.19;4842282;29;20037;-85
2021/09/27 04:30:23;;;;;;;5.60;2.30;;;;;;;-149.78;100.00;50197.66;4821887;29;20038;-81
2021/09/27 04:33:07;;;;;;;5.72;3.63;;;;;;;-149.78;100.00;50203.50;4838744;29;20046;-88
2021/09/27 04:36:07;;;;;;;3.03;1.92;;;;;;;-149.78;100.00;50166.34;4840547;29;20045;-88
2021/09/27 04:38:36;;;;;;;5.93;2.47;;;;;;;-149.78;100.00;50183.97;4764817;30;20044;-89
2021/09/27 04:41:16;;;;;;;2.58;2.08;;;;;;;-149.78;100.00;50185.91;4829345;29;20046;-88
2021/09/27 04:43:57;;;;;;;4.03;2.33;;;;;;;-149.78;100.00;50189.81;4812156;29;20044;-86
2021/09/27 04:46:35;;;;;;;5.57;2.17;;;;;;;-149.78;100.00;50205.47;4832701;29;20069;-89
2021/09/27 04:49:42;;;;;;;3.38;1.73;;;;;;;-149.78;100.00;50205.47;4843554;29;20073;-87
2021/09/27 04:52:16;;;;;;;3.28;2.15;;;;;;;-149.78;100.00;50174.19;4814783;29;20049;-87
2021/09/27 04:55:19;;;;;;;5.03;2.75;;;;;;;-149.78;100.00;50217.19;4826751;29;20085;-89
2021/09/27 04:58:32;;;;;;;5.40;2.08;;;;;;;-149.78;100.00;50172.22;4831826;29;20133;-88
2021/09/27 05:01:45;;;;;;;4.53;2.10;;;;;;;-149.78;100.00;50158.53;4844682;29;20042;-88
2021/09/27 05:04:19;;;;;;;2.33;1.65;;;;;;;-149.78;100.00;50209.38;4827995;29;20482;-89
2021/09/27 05:07:09;;;;;;;4.70;2.00;;;;;;;-149.78;100.00;50228.94;4831798;29;20056;-91
2021/09/27 05:10:04;;;;;;;3.83;1.88;;;;;;;-149.78;100.00;50201.56;4843007;29;20041;-89
2021/09/27 05:12:39;;;;;;;4.05;1.50;;;;;;;-149.78;100.00;50209.38;4827506;29;20056;-92
2021/09/27 05:15:14;;;;;;;3.88;1.45;;;;;;;-149.78;100.00;50213.28;4829700;29;20490;-88
2021/09/27 05:18:02;;;;;;;4.55;1.85;;;;;;;-149.78;100.00;50170.25;4811592;29;20049;-88
2021/09/27 05:20:40;;;;;;;4.13;1.70;;;;;;;-149.78;100.00;50213.28;4826933;29;20049;-88
2021/09/27 05:23:21;;;;;;;5.22;2.03;;;;;;;-149.78;100.00;50197.66;4829435;29;20569;-88
2021/09/27 05:26:02;;;;;;;7.57;1.83;;;;;;;-149.78;100.00;50197.66;4824742;29;20038;-87
2021/09/27 05:28:27;;;;;;;7.57;1.60;;;;;;;-149.78;100.00;50185.91;4809670;29;20132;-81
2021/09/27 05:31:08;;;;;;;5.20;1.52;;;;;;;-149.78;100.00;50232.84;4823214;29;20173;-83
2021/09/27 05:33:55;;;;;;;6.57;1.77;;;;;;;-149.78;100.00;50168.31;4838125;29;20038;-89
2021/09/27 05:36:35;;;;;;;5.07;1.63;;;;;;;-149.78;100.00;50207.44;4827457;29;20037;-89
2021/09/27 05:39:07;;;;;;;5.38;1.60;;;;;;;-149.78;100.00;50166.34;4841317;29;20041;-88
2021/09/27 05:41:57;;;;;;;3.63;1.60;;;;;;;-149.78;100.00;50164.41;4825411;29;20116;-87
2021/09/27 05:44:39;;;;;;;4.05;1.83;;;;;;;-149.78;100.00;50201.56;4826569;29;20038;-86
2021/09/27 05:47:09;;;;;;;6.28;1.70;;;;;;;-149.78;100.00;50205.47;4824792;29;20093;-87
2021/09/27 05:50:06;;;;;;;3.28;1.75;;;;;;;-149.78;100.00;50217.19;4824911;29;20517;-87
2021/09/27 05:53:00;;;;;;;5.75;2.13;;;;;;;-149.78;100.00;50185.91;4809098;29;20105;-84
2021/09/27 05:55:41;;;;;;;5.80;1.75;;;;;;;-149.78;100.00;50217.19;4804173;29;20056;-84
2021/09/27 05:58:10;;;;;;;6.72;2.00;;;;;;;-149.78;100.00;50213.28;4824478;29;20026;-86
2021/09/27 06:00:59;;;;;;;5.72;2.45;;;;;;;-149.78;100.00;50201.56;4822461;29;20041;-88
2021/09/27 06:03:53;;;;;;;3.65;1.85;;;;;;;-149.78;100.00;50180.03;4808827;29;20070;-85
2021/09/27 06:06:39;;;;;;;6.10;2.00;;;;;;;-149.78;100.00;50232.84;4830211;29;20038;-84
2021/09/27 06:09:39;;;;;;;7.47;2.05;;;;;;;-149.78;100.00;50209.38;4830439;29;20062;-82
2021/09/27 06:12:21;;;;;;;5.18;1.75;;;;;;;-149.78;100.00;50240.66;4835203;29;20113;-81
2021/09/27 06:14:50;;;;;;;5.75;2.25;;;;;;;-149.78;100.00;50221.13;4827773;29;20045;-77
2021/09/27 06:17:25;;;;;;;9.32;2.60;;;;;;;-149.78;100.00;50205.47;4821168;29;20041;-80
2021/09/27 06:19:59;;;;;;;7.55;2.50;;;;;;;-149.78;100.00;50221.13;4829317;29;20037;-76
2021/09/27 06:22:38;;;;;;;11.82;3.33;;;;;;;-149.78;100.00;50217.19;4832865;29;20075;-80
2021/09/27 06:25:24;;;;;;;8.70;3.00;;;;;;;-149.78;100.00;50221.13;4826037;29;20030;-77
2021/09/27 06:28:02;;;;;;;11.38;2.90;;;;;;;-149.78;100.00;50223.06;4838218;29;20054;-78
2021/09/27 06:31:00;;;;;;;4.15;3.10;;;;;;;-149.78;100.00;50217.19;4833769;29;20034;-77
2021/09/27 06:33:36;;;;;;;5.03;2.63;;;;;;;-149.78;100.00;50221.13;4827289;29;20137;-76
2021/09/27 06:36:08;;;;;;;6.57;2.90;;;;;;;-149.78;100.00;50197.66;4812524;29;20574;-79
2021/09/27 06:38:37;;;;;;;7.28;2.90;;;;;;;-149.78;100.00;50201.56;4827584;29;20098;-79
2021/09/27 06:41:08;;;;;;;5.40;2.55;;;;;;;-149.78;100.00;50201.56;4811562;29;20086;-78
2021/09/27 06:43:33;;;;;;;5.80;2.70;;;;;;;-149.78;100.00;50232.84;4812064;29;20030;-75
2021/09/27 06:45:59;;;;;;;12.13;2.95;;;;;;;-149.78;100.00;50189.81;4819252;29;20061;-75
2021/09/27 06:48:25;;;;;;;7.60;3.00;;;;;;;-149.78;100.00;50232.84;4833412;29;20061;-76
2021/09/27 06:50:52;;;;;;;5.22;2.88;;;;;;;-149.78;100.00;50209.38;4821832;29;20129;-77
2021/09/27 06:53:18;;;;;;;5.75;2.83;;;;;;;-149.78;100.00;50189.81;4843548;29;20042;-75
2021/09/27 06:55:44;;;;;;;6.15;2.88;;;;;;;-149.78;100.00;50248.50;4821055;29;20101;-77
2021/09/27 06:58:11;;;;;;;10.65;3.08;;;;;;;-149.78;100.00;50225.03;4841764;29;20076;-82
2021/09/27 07:00:36;;;;;;;9.93;3.03;;;;;;;-149.78;100.00;50201.56;4823653;29;20048;-82
2021/09/27 07:03:03;;;;;;;6.20;3.40;;;;;;;-149.78;100.00;50225.03;4791841;29;20065;-81
2021/09/27 07:05:28;;;;;;;6.53;3.60;;;;;;;-149.78;100.00;50234.81;4829833;29;20394;-76
2021/09/27 07:07:55;;;;;;;6.03;3.00;;;;;;;-149.78;100.00;50240.66;4788490;29;20041;-75
2021/09/27 07:10:23;;;;;;;7.15;2.92;;;;;;;-149.78;100.00;50221.13;4820471;29;20041;-75
2021/09/27 07:12:50;;;;;;;6.13;3.20;;;;;;;-149.78;100.00;50221.13;4837142;29;20051;-75
2021/09/27 07:15:16;;;;;;;4.90;2.10;;;;;;;-149.78;100.00;50209.38;4836228;29;20090;-74
2021/09/27 07:17:41;;;;;;;2.45;1.10;;;;;;;-149.78;100.00;50244.59;4838229;29;20042;-74
2021/09/27 07:20:11;;;;;;;1.67;0.80;;;;;;;-149.78;100.00;50240.66;4821159;29;20046;-75
2021/09/27 07:22:37;;;;;;;3.53;0.85;;;;;;;-149.78;100.00;50275.88;4836746;29;20034;-74
2021/09/27 07:25:05;;;;;;;1.25;0.50;;;;;;;-149.78;100.00;50285.66;4802997;29;20494;-74
2021/09/27 07:27:31;;;;;;;0.10;0.10;;;;;;;-149.78;100.00;50281.75;4840657;29;20391;-74
2021/09/27 07:29:57;;;;;;;0.10;0.08;;;;;;;-149.78;100.00;50260.22;4843016;29;20440;-75
2021/09/27 07:32:23;;;;;;;0.55;0.20;;;;;;;-149.78;100.00;50262.19;4820089;29;20402;-75
2021/09/27 07:34:49;;;;;;;0.10;0.10;;;;;;;-149.78;100.00;50252.41;4831390;29;20041;-75
2021/09/27 07:37:14;;;;;;;1.83;0.20;;;;;;;-149.78;100.00;50277.81;4838909;29;20098;-75
2021/09/27 07:39:41;;;;;;;0.10;0.10;;;;;;;-149.78;100.00;50301.28;4843158;29;20049;-75
2021/09/27 07:42:07;;;;;;;0.10;0.10;;;;;;;-149.78;100.00;50260.22;4843873;29;20121;-74
2021/09/27 07:44:33;;;;;;;1.00;0.20;;;;;;;-149.78;100.00;50320.84;4843595;29;20621;-75
2021/09/27 07:46:59;;;;;;;0.32;0.20;;;;;;;-149.78;100.00;50256.31;4844918;29;20046;-74
2021/09/27 07:49:25;;;;;;;1.25;0.30;;;;;;;-149.78;100.00;50303.25;4840113;29;20223;-75
2021/09/27 07:51:53;;;;;;;0.57;0.30;;;;;;;-149.78;100.00;50283.69;4842231;29;20094;-75
2021/09/27 07:54:20;;;;;;;0.70;0.20;;;;;;;-149.78;100.00;50311.06;4841884;29;20045;-75
2021/09/27 07:56:45;;;;;;;0.17;0.10;;;;;;;-149.78;100.00;50289.56;4837703;29;20038;-75
2021/09/27 07:59:11;;;;;;;0.40;0.20;;;;;;;-149.78;100.00;50291.50;4841807;29;20030;-74
2021/09/27 08:01:37;;;;;;;0.25;0.10;;;;;;;-149.78;100.00;50275.88;4802557;29;20106;-74
2021/09/27 08:04:03;;;;;;;0.10;0.10;;;;;;;-149.78;100.00;50314.97;4839656;29;20049;-74
2021/09/27 08:06:29;;;;;;;0.20;0.20;;;;;;;-149.78;100.00;50277.81;4840644;29;20415;-74
2021/09/27 08:08:55;;;;;;;0.20;0.20;;;;;;;-149.78;100.00;50303.25;4837165;29;20040;-74
2021/09/27 08:11:21;;;;;;;0.30;0.30;;;;;;;-149.78;100.00;50305.22;4827480;29;20053;-74
2021/09/27 08:13:47;;;;;;;0.50;0.22;;;;;;;-149.78;100.00;50264.13;4816494;29;20066;-74
2021/09/27 08:16:13;;;;;;;0.35;0.20;;;;;;;-149.78;100.00;50271.97;4827358;29;20116;-74
2021/09/27 08:18:39;;;;;;;0.20;0.20;;;;;;;-149.78;100.00;50275.88;4842355;29;20370;-74
2021/09/27 08:21:10;;;;;;;1.45;0.30;;;;;;;-149.78;100.00;50287.59;4817076;29;20035;-74
2021/09/27 08:23:36;;;;;;;0.77;0.30;;;;;;;-149.78;100.00;50273.91;4842737;29;20044;-73
2021/09/27 08:26:03;;;;;;;0.28;0.20;;;;;;;-149.78;100.00;50311.06;4825722;29;20037;-73
2021/09/27 08:28:30;;;;;;;0.45;0.30;;;;;;;-149.78;100.00;50326.72;4842606;29;20042;-73
2021/09/27 08:31:00;;;;;;;0.47;0.40;;;;;;;-149.78;100.00;50309.13;4841772;29;20065;-74
2021/09/27 08:33:29;;;;;;;0.57;0.40;;;;;;;-149.78;100.00;50287.59;4843235;29;20045;-73
2021/09/27 08:35:57;;;;;;;0.30;0.30;;;;;;;-149.78;100.00;50279.78;4824080;29;20044;-74
2021/09/27 08:38:24;;;;;;;0.68;0.22;;;;;;;-149.78;100.00;50271.97;4833873;29;20042;-74
2021/09/27 08:41:08;;;;;;;0.73;0.50;;;;;;;-149.78;100.00;50236.75;4842707;29;20660;-73
2021/09/27 08:43:49;;;;;;;0.32;0.28;;;;;;;-149.78;100.00;50221.13;4833125;29;20038;-74
2021/09/27 08:46:33;;;;;;;0.30;0.30;;;;;;;-149.78;100.00;50197.66;4836281;29;20026;-74
2021/09/27 08:49:14;;;;;;;0.45;0.40;;;;;;;-149.78;100.00;50211.34;4825213;29;20025;-74
2021/09/27 08:51:41;;;;;;;0.50;0.40;;;;;;;-149.78;100.00;50183.97;4841888;29;20044;-74
2021/09/27 08:54:14;;;;;;;0.40;0.38;;;;;;;-149.78;100.00;50189.81;4825139;29;20086;-73
2021/09/27 08:56:56;;;;;;;1.48;0.40;;;;;;;-149.78;100.00;50189.81;4838405;29;20065;-74
2021/09/27 08:59:40;;;;;;;1.80;0.45;;;;;;;-149.78;100.00;50197.66;4825069;29;20356;-74
2021/09/27 09:02:16;;;;;;;0.50;0.50;;;;;;;-149.78;100.00;50201.56;4836575;29;20030;-74
2021/09/27 09:05:19;;;;;;;0.50;0.30;;;;;;;-149.78;100.00;50135.06;4840968;29;20027;-75
2021/09/27 09:07:51;;;;;;;0.93;0.30;;;;;;;-149.78;100.00;50107.69;4822344;29;20034;-75
2021/09/27 09:10:30;;;;;;;0.47;0.30;;;;;;;-149.78;93.97;50103.78;4817308;29;20045;-76
2021/09/27 09:13:01;;;;;;;0.30;0.30;;;;;;;-149.78;75.94;50088.13;4840034;29;20038;-76
2021/09/27 09:15:29;;;;;;;0.57;0.40;;;;;;;-149.78;69.18;50052.94;4840496;29;20066;-73
2021/09/27 09:18:03;;;;;;;0.75;0.50;;;;;;;-149.78;65.26;50060.75;4818670;29;20407;-75
2021/09/27 09:20:52;;;;;;;1.27;0.30;;;;;;;-149.78;67.78;50094.00;4835962;29;20386;-74
2021/09/27 09:23:30;;;;;;;1.80;0.57;;;;;;;-149.78;69.98;50119.41;4836677;29;20084;-77
2021/09/27 09:25:56;;;;;;;1.35;0.30;;;;;;;-149.78;90.17;50185.91;4821677;29;20090;-77
2021/09/27 09:28:22;;;;;;;1.00;0.30;;;;;;;-149.78;91.85;50219.16;4803438;29;20034;-76
2021/09/27 09:31:07;;;;;;;1.98;0.30;;;;;;;-149.78;100.00;50230.88;4817066;29;20045;-74
2021/09/27 09:33:54;;;;;;;0.22;0.22;;;;;;;-149.78;100.00;50221.13;4825188;29;20034;-75
2021/09/27 09:36:25;;;;;;;0.88;0.50;;;;;;;-149.78;100.00;50228.94;4835737;29;20061;-75
2021/09/27 09:38:52;;;;;;;0.60;0.50;;;;;;;-149.78;100.00;50240.66;4840066;29;20041;-75
2021/09/27 09:41:18;;;;;;;3.10;0.50;;;;;;;-149.78;100.00;50291.50;4825192;29;20030;-75
2021/09/27 09:43:50;;;;;;;0.55;0.20;;;;;;;-149.78;100.00;50236.75;4835421;29;20035;-75
2021/09/27 09:46:16;;;;;;;0.30;0.30;;;;;;;-149.78;100.00;50268.03;4839979;29;20034;-75
2021/09/27 09:49:03;;;;;;;0.40;0.40;;;;;;;-149.78;100.00;50264.13;4823407;29;20375;-74
2021/09/27 09:51:35;;;;;;;0.85;0.77;;;;;;;-149.78;100.00;50213.28;4840242;29;20038;-75
2021/09/27 09:54:09;;;;;;;1.60;1.33;;;;;;;-149.78;100.00;50232.84;4824498;29;20137;-76
2021/09/27 09:56:38;;;;;;;2.33;1.60;;;;;;;-149.78;100.00;50185.91;4838799;29;20040;-75
2021/09/27 09:59:23;;;;;;;3.10;1.33;;;;;;;-149.78;100.00;50197.66;4824535;29;20441;-77
2021/09/27 10:01:53;;;;;;;2.95;0.90;;;;;;;-149.78;100.00;50189.81;4837311;29;20043;-76
2021/09/27 10:04:29;;;;;;;2.63;0.70;;;;;;;-149.78;100.00;50170.25;4835602;29;20030;-76
2021/09/27 10:07:08;;;;;;;2.85;1.00;;;;;;;-149.78;87.11;50144.84;4821748;29;20394;-76
2021/09/27 10:09:55;;;;;;;1.38;0.90;;;;;;;-149.78;90.68;50146.81;4823602;29;20064;-76
2021/09/27 10:12:47;;;;;;;2.08;1.20;;;;;;;-149.78;76.35;50178.09;4807682;29;20391;-76
2021/09/27 10:15:35;;;;;;;5.07;1.60;;;;;;;-149.78;94.45;50178.09;4820618;29;20050;-76
2021/09/27 10:18:03;;;;;;;2.03;1.60;;;;;;;-149.78;87.32;50178.09;4813888;29;20079;-76
2021/09/27 10:20:37;;;;;;;2.03;1.83;;;;;;;-149.78;78.65;50138.97;4820887;29;20061;-74
2021/09/27 10:23:11;;;;;;;2.55;1.60;;;;;;;-149.78;77.50;50144.84;4819192;29;20084;-74
2021/09/27 10:25:41;;;;;;;1.33;1.23;;;;;;;-149.78;82.88;50158.53;4818069;29;20026;-74
2021/09/27 10:28:15;;;;;;;1.48;1.38;;;;;;;-149.78;83.08;50166.34;4821090;29;20030;-74
2021/09/27 10:30:49;;;;;;;3.90;1.30;;;;;;;-149.78;84.03;50154.63;4816103;29;20035;-77
2021/09/27 10:33:20;;;;;;;3.88;1.30;;;;;;;-149.78;74.10;50125.28;4815423;29;20062;-74
2021/09/27 10:35:54;;;;;;;1.65;1.20;;;;;;;-149.78;65.53;50078.34;4803272;29;20042;-75
2021/09/27 10:38:28;;;;;;;2.65;1.10;;;;;;;-149.78;59.43;50084.22;4820000;29;20059;-75
2021/09/27 10:40:54;;;;;;;1.30;1.00;;;;;;;-149.78;58.36;50050.97;4820832;29;20068;-76
2021/09/27 10:43:25;;;;;;;1.52;0.85;;;;;;;-149.78;57.75;50107.69;4822227;29;20074;-76
2021/09/27 10:45:57;;;;;;;1.15;0.90;;;;;;;-149.78;58.42;50088.13;4820232;29;20034;-76
2021/09/27 10:48:24;;;;;;;1.63;0.90;;;;;;;-149.78;59.41;50101.81;4821445;29;20040;-75
2021/09/27 10:50:57;;;;;;;1.67;0.90;;;;;;;-149.78;56.43;50095.94;4813449;29;20084;-75
2021/09/27 10:53:34;;;;;;;0.95;0.77;;;;;;;-149.78;55.63;50107.69;4816983;29;20027;-75
2021/09/27 10:56:06;;;;;;;2.88;0.70;;;;;;;-149.78;57.46;50135.06;4817098;29;20109;-76
2021/09/27 10:58:42;;;;;;;;;;;;;;;-149.78;58.25;50107.69;4822498;29;20041;-76
2021/09/27 11:01:10;;;;;;;2.40;0.80;;;;;;;-149.78;57.00;50111.59;4819096;29;19966;-75
2021/09/27 11:03:47;;;;;;;1.10;0.75;;;;;;;-149.78;55.23;50088.13;4821463;29;20079;-75
2021/09/27 11:07:03;;;;;;;2.55;1.00;;;;;;;-149.78;55.24;50064.66;4820698;29;20038;-76
2021/09/27 11:09:34;;;;;;;2.15;1.40;;;;;;;-149.78;58.40;50092.03;4796022;29;20039;-76
2021/09/27 11:12:27;;;;;;;1.52;1.00;;;;;;;-149.78;60.77;50123.34;4812824;29;20046;-75
2021/09/27 11:14:55;;;;;;;0.88;0.80;;;;;;;-149.78;59.06;50127.25;4831873;29;20509;-75
2021/09/27 11:17:44;;;;;;;1.60;1.00;;;;;;;-149.78;62.13;50158.53;4840003;29;20038;-75
2021/09/27 11:20:16;;;;;;;1.27;0.77;;;;;;;-149.78;64.43;50174.19;4843382;29;20137;-76
2021/09/27 11:22:44;;;;;;;2.17;1.02;;;;;;;-149.78;68.84;50185.91;4843792;29;20034;-76
2021/09/27 11:25:35;;;;;;;1.90;0.80;;;;;;;-149.78;71.86;50228.94;4840983;29;20031;-76
2021/09/27 11:28:07;;;;;;;1.60;0.88;;;;;;;-149.78;69.06;50138.97;4827562;29;20053;-76
2021/09/27 11:30:57;;;;;;;2.95;0.77;;;;;;;-149.78;70.57;50154.63;4832981;29;20035;-75
2021/09/27 11:33:29;;;;;;;3.00;0.70;;;;;;;-149.78;69.14;50162.44;4843221;29;20374;-75
2021/09/27 11:35:59;;;;;;;2.15;0.75;;;;;;;-149.78;72.01;50201.56;4839712;29;20035;-76
2021/09/27 11:38:41;;;;;;;2.45;0.70;;;;;;;-149.78;71.82;50217.19;4811033;29;20042;-75
2021/09/27 11:41:09;;;;;;;2.08;0.90;;;;;;;-149.78;72.84;50197.66;4837480;29;20029;-74
2021/09/27 11:43:45;;;;;;;1.50;0.70;;;;;;;-149.78;78.81;50168.31;4818542;29;20034;-75
2021/09/27 11:46:30;;;;;;;0.70;0.70;;;;;;;-149.78;76.98;50182.00;4825530;29;20034;-75
2021/09/27 11:52:18;;;;;;;5.20;1.00;;;;;;;-149.78;73.05;50211.34;4840206;29;20038;-74
2021/09/27 11:54:48;;;;;;;1.23;0.60;;;;;;;-149.78;79.37;50215.25;4825027;29;20026;-74
2021/09/27 11:57:35;;;;;;;7.95;1.10;;;;;;;-149.78;76.44;50189.81;4844263;29;20034;-74
2021/09/27 12:00:07;;;;;;;2.47;0.93;;;;;;;-149.78;79.14;50178.09;4841640;29;20034;-74